sensor_id;sensor_type;location;lat;lon;timestamp;P1;durP1;ratioP1;P2;durP2;ratioP2
60370;SDS011;48550;40.588;49.684;2022-10-31T00:01:25;13.43;;;7.22;;
60370;SDS011;48550;40.588;49.684;2022-10-31T00:03:53;12.35;;;7.07;;
60370;SDS011;48550;40.588;49.684;2022-10-31T00:06:19;16.27;;;7.30;;
60370;SDS011;48550;40.588;49.684;2022-10-31T00:08:47;17.38;;;10.30;;
60370;SDS011;48550;40.588;49.684;2022-10-31T00:11:16;13.55;;;7.93;;
60370;SDS011;48550;40.588;49.684;2022-10-31T00:13:42;15.07;;;8.38;;
60370;SDS011;48550;40.588;49.684;2022-10-31T00:16:15;14.65;;;8.43;;
60370;SDS011;48550;40.588;49.684;2022-10-31T00:18:42;13.85;;;8.07;;
60370;SDS011;48550;40.588;49.684;2022-10-31T00:21:08;15.40;;;8.55;;
60370;SDS011;48550;40.588;49.684;2022-10-31T00:23:34;16.70;;;8.45;;
60370;SDS011;48550;40.588;49.684;2022-10-31T00:26:03;15.57;;;8.05;;
60370;SDS011;48550;40.588;49.684;2022-10-31T00:28:32;18.00;;;8.63;;
60370;SDS011;48550;40.588;49.684;2022-10-31T00:30:58;15.85;;;8.85;;
60370;SDS011;48550;40.588;49.684;2022-10-31T00:33:25;15.52;;;8.85;;
60370;SDS011;48550;40.588;49.684;2022-10-31T00:35:51;17.23;;;9.13;;
60370;SDS011;48550;40.588;49.684;2022-10-31T00:38:16;18.40;;;9.00;;
60370;SDS011;48550;40.588;49.684;2022-10-31T00:40:42;16.92;;;9.25;;
60370;SDS011;48550;40.588;49.684;2022-10-31T00:43:08;17.00;;;9.40;;
60370;SDS011;48550;40.588;49.684;2022-10-31T00:45:33;16.73;;;9.27;;
60370;SDS011;48550;40.588;49.684;2022-10-31T00:47:59;19.08;;;10.23;;
60370;SDS011;48550;40.588;49.684;2022-10-31T00:50:25;17.60;;;9.80;;
60370;SDS011;48550;40.588;49.684;2022-10-31T00:52:50;17.35;;;9.18;;
60370;SDS011;48550;40.588;49.684;2022-10-31T00:55:16;23.10;;;10.18;;
60370;SDS011;48550;40.588;49.684;2022-10-31T00:57:42;21.50;;;10.40;;
60370;SDS011;48550;40.588;49.684;2022-10-31T01:00:08;16.95;;;10.70;;
60370;SDS011;48550;40.588;49.684;2022-10-31T01:02:34;21.45;;;12.27;;
60370;SDS011;48550;40.588;49.684;2022-10-31T01:04:59;22.67;;;11.05;;
60370;SDS011;48550;40.588;49.684;2022-10-31T01:07:25;18.80;;;11.90;;
60370;SDS011;48550;40.588;49.684;2022-10-31T01:09:51;20.50;;;11.55;;
60370;SDS011;48550;40.588;49.684;2022-10-31T01:12:16;21.60;;;11.30;;
60370;SDS011;48550;40.588;49.684;2022-10-31T01:14:43;21.77;;;13.07;;
60370;SDS011;48550;40.588;49.684;2022-10-31T01:17:10;24.60;;;12.93;;
60370;SDS011;48550;40.588;49.684;2022-10-31T01:19:36;25.33;;;13.93;;
60370;SDS011;48550;40.588;49.684;2022-10-31T01:22:02;30.02;;;15.18;;
60370;SDS011;48550;40.588;49.684;2022-10-31T01:24:28;27.25;;;14.25;;
60370;SDS011;48550;40.588;49.684;2022-10-31T01:26:54;32.97;;;14.27;;
60370;SDS011;48550;40.588;49.684;2022-10-31T01:29:19;37.45;;;18.15;;
60370;SDS011;48550;40.588;49.684;2022-10-31T01:31:45;38.50;;;19.83;;
60370;SDS011;48550;40.588;49.684;2022-10-31T01:34:14;52.85;;;24.23;;
60370;SDS011;48550;40.588;49.684;2022-10-31T01:36:41;51.13;;;25.33;;
60370;SDS011;48550;40.588;49.684;2022-10-31T01:39:12;56.60;;;26.45;;
60370;SDS011;48550;40.588;49.684;2022-10-31T01:41:40;56.42;;;26.92;;
60370;SDS011;48550;40.588;49.684;2022-10-31T01:46:50;55.58;;;26.30;;
60370;SDS011;48550;40.588;49.684;2022-10-31T01:52:24;57.17;;;26.92;;
60370;SDS011;48550;40.588;49.684;2022-10-31T01:55:00;66.82;;;28.77;;
60370;SDS011;48550;40.588;49.684;2022-10-31T01:57:37;56.92;;;26.88;;
60370;SDS011;48550;40.588;49.684;2022-10-31T02:00:08;60.33;;;27.65;;
60370;SDS011;48550;40.588;49.684;2022-10-31T02:02:35;62.35;;;26.38;;
60370;SDS011;48550;40.588;49.684;2022-10-31T02:05:02;53.28;;;24.30;;
60370;SDS011;48550;40.588;49.684;2022-10-31T02:07:43;67.95;;;28.17;;
60370;SDS011;48550;40.588;49.684;2022-10-31T02:10:17;56.22;;;25.55;;
60370;SDS011;48550;40.588;49.684;2022-10-31T02:12:45;56.08;;;24.65;;
60370;SDS011;48550;40.588;49.684;2022-10-31T02:15:12;52.15;;;21.73;;
60370;SDS011;48550;40.588;49.684;2022-10-31T02:17:38;48.50;;;22.13;;
60370;SDS011;48550;40.588;49.684;2022-10-31T02:20:16;55.13;;;23.73;;
60370;SDS011;48550;40.588;49.684;2022-10-31T02:22:57;43.00;;;20.42;;
60370;SDS011;48550;40.588;49.684;2022-10-31T02:28:41;42.63;;;18.85;;
60370;SDS011;48550;40.588;49.684;2022-10-31T02:34:22;45.47;;;19.70;;
60370;SDS011;48550;40.588;49.684;2022-10-31T02:37:07;41.30;;;18.23;;
60370;SDS011;48550;40.588;49.684;2022-10-31T02:39:49;39.70;;;17.50;;
60370;SDS011;48550;40.588;49.684;2022-10-31T02:45:45;41.22;;;16.90;;
60370;SDS011;48550;40.588;49.684;2022-10-31T02:48:15;34.35;;;16.67;;
60370;SDS011;48550;40.588;49.684;2022-10-31T02:50:52;31.73;;;15.40;;
60370;SDS011;48550;40.588;49.684;2022-10-31T02:53:22;31.40;;;15.25;;
60370;SDS011;48550;40.588;49.684;2022-10-31T02:55:54;28.63;;;15.63;;
60370;SDS011;48550;40.588;49.684;2022-10-31T02:58:22;37.08;;;18.70;;
60370;SDS011;48550;40.588;49.684;2022-10-31T03:03:42;45.30;;;18.15;;
60370;SDS011;48550;40.588;49.684;2022-10-31T03:06:29;43.13;;;19.13;;
60370;SDS011;48550;40.588;49.684;2022-10-31T03:09:01;38.72;;;17.90;;
60370;SDS011;48550;40.588;49.684;2022-10-31T03:11:58;45.15;;;18.25;;
60370;SDS011;48550;40.588;49.684;2022-10-31T03:14:38;46.10;;;18.85;;
60370;SDS011;48550;40.588;49.684;2022-10-31T03:17:07;53.75;;;18.50;;
60370;SDS011;48550;40.588;49.684;2022-10-31T03:19:42;40.20;;;18.60;;
60370;SDS011;48550;40.588;49.684;2022-10-31T03:24:44;46.72;;;19.98;;
60370;SDS011;48550;40.588;49.684;2022-10-31T03:27:13;44.15;;;20.02;;
60370;SDS011;48550;40.588;49.684;2022-10-31T03:29:42;47.08;;;20.40;;
60370;SDS011;48550;40.588;49.684;2022-10-31T03:32:12;46.08;;;20.73;;
60370;SDS011;48550;40.588;49.684;2022-10-31T03:34:42;45.08;;;19.08;;
60370;SDS011;48550;40.588;49.684;2022-10-31T03:37:10;46.65;;;21.95;;
60370;SDS011;48550;40.588;49.684;2022-10-31T03:42:14;43.85;;;19.48;;
60370;SDS011;48550;40.588;49.684;2022-10-31T03:44:42;46.97;;;19.52;;
60370;SDS011;48550;40.588;49.684;2022-10-31T03:47:13;54.20;;;19.38;;
60370;SDS011;48550;40.588;49.684;2022-10-31T03:49:39;50.70;;;19.08;;
60370;SDS011;48550;40.588;49.684;2022-10-31T03:55:13;39.17;;;18.13;;
60370;SDS011;48550;40.588;49.684;2022-10-31T03:57:51;48.17;;;17.98;;
60370;SDS011;48550;40.588;49.684;2022-10-31T04:00:18;60.85;;;18.73;;
60370;SDS011;48550;40.588;49.684;2022-10-31T04:03:01;47.88;;;18.20;;
60370;SDS011;48550;40.588;49.684;2022-10-31T04:05:35;56.80;;;19.70;;
60370;SDS011;48550;40.588;49.684;2022-10-31T04:08:03;43.17;;;17.92;;
60370;SDS011;48550;40.588;49.684;2022-10-31T04:10:34;58.80;;;18.52;;
60370;SDS011;48550;40.588;49.684;2022-10-31T04:13:07;36.03;;;18.85;;
60370;SDS011;48550;40.588;49.684;2022-10-31T04:15:37;36.10;;;17.42;;
60370;SDS011;48550;40.588;49.684;2022-10-31T04:18:06;31.23;;;16.73;;
60370;SDS011;48550;40.588;49.684;2022-10-31T04:20:36;42.83;;;17.92;;
60370;SDS011;48550;40.588;49.684;2022-10-31T04:23:03;37.63;;;15.60;;
60370;SDS011;48550;40.588;49.684;2022-10-31T04:25:30;48.65;;;15.52;;
60370;SDS011;48550;40.588;49.684;2022-10-31T04:27:55;35.67;;;15.05;;
60370;SDS011;48550;40.588;49.684;2022-10-31T04:30:21;42.17;;;12.10;;
60370;SDS011;48550;40.588;49.684;2022-10-31T04:32:47;26.63;;;10.95;;
60370;SDS011;48550;40.588;49.684;2022-10-31T04:35:13;31.33;;;12.18;;
60370;SDS011;48550;40.588;49.684;2022-10-31T04:37:39;19.77;;;9.57;;
60370;SDS011;48550;40.588;49.684;2022-10-31T04:40:05;26.38;;;10.60;;
60370;SDS011;48550;40.588;49.684;2022-10-31T04:42:31;23.05;;;10.30;;
60370;SDS011;48550;40.588;49.684;2022-10-31T04:44:57;22.45;;;9.93;;
60370;SDS011;48550;40.588;49.684;2022-10-31T04:47:22;19.00;;;9.52;;
60370;SDS011;48550;40.588;49.684;2022-10-31T04:49:48;28.25;;;10.13;;
60370;SDS011;48550;40.588;49.684;2022-10-31T04:52:14;28.67;;;11.95;;
60370;SDS011;48550;40.588;49.684;2022-10-31T04:54:39;21.70;;;8.90;;
60370;SDS011;48550;40.588;49.684;2022-10-31T04:57:05;29.83;;;10.70;;
60370;SDS011;48550;40.588;49.684;2022-10-31T04:59:31;22.20;;;9.70;;
60370;SDS011;48550;40.588;49.684;2022-10-31T05:01:57;17.05;;;9.60;;
60370;SDS011;48550;40.588;49.684;2022-10-31T05:04:22;24.88;;;10.15;;
60370;SDS011;48550;40.588;49.684;2022-10-31T05:06:48;15.25;;;7.78;;
60370;SDS011;48550;40.588;49.684;2022-10-31T05:09:14;16.85;;;7.20;;
60370;SDS011;48550;40.588;49.684;2022-10-31T05:11:39;22.08;;;8.15;;
60370;SDS011;48550;40.588;49.684;2022-10-31T05:14:05;14.73;;;7.80;;
60370;SDS011;48550;40.588;49.684;2022-10-31T05:16:31;17.50;;;7.28;;
60370;SDS011;48550;40.588;49.684;2022-10-31T05:18:56;19.95;;;8.95;;
60370;SDS011;48550;40.588;49.684;2022-10-31T05:21:22;15.32;;;7.15;;
60370;SDS011;48550;40.588;49.684;2022-10-31T05:23:48;15.25;;;6.72;;
60370;SDS011;48550;40.588;49.684;2022-10-31T05:26:13;18.17;;;7.88;;
60370;SDS011;48550;40.588;49.684;2022-10-31T05:28:39;12.43;;;7.43;;
60370;SDS011;48550;40.588;49.684;2022-10-31T05:31:05;19.75;;;6.97;;
60370;SDS011;48550;40.588;49.684;2022-10-31T05:33:30;19.98;;;7.15;;
60370;SDS011;48550;40.588;49.684;2022-10-31T05:35:56;21.20;;;8.85;;
60370;SDS011;48550;40.588;49.684;2022-10-31T05:38:22;12.55;;;6.70;;
60370;SDS011;48550;40.588;49.684;2022-10-31T05:40:48;14.32;;;6.20;;
60370;SDS011;48550;40.588;49.684;2022-10-31T05:43:13;17.80;;;6.40;;
60370;SDS011;48550;40.588;49.684;2022-10-31T05:45:39;11.93;;;6.30;;
60370;SDS011;48550;40.588;49.684;2022-10-31T05:48:05;11.95;;;5.43;;
60370;SDS011;48550;40.588;49.684;2022-10-31T05:50:31;20.15;;;6.40;;
60370;SDS011;48550;40.588;49.684;2022-10-31T05:52:59;14.82;;;5.88;;
60370;SDS011;48550;40.588;49.684;2022-10-31T05:55:27;15.15;;;6.97;;
60370;SDS011;48550;40.588;49.684;2022-10-31T05:57:54;16.55;;;6.53;;
60370;SDS011;48550;40.588;49.684;2022-10-31T06:00:20;12.50;;;5.97;;
60370;SDS011;48550;40.588;49.684;2022-10-31T06:02:47;10.45;;;5.50;;
60370;SDS011;48550;40.588;49.684;2022-10-31T06:05:13;19.48;;;8.25;;
60370;SDS011;48550;40.588;49.684;2022-10-31T06:07:39;19.90;;;5.53;;
60370;SDS011;48550;40.588;49.684;2022-10-31T06:10:05;14.50;;;5.38;;
60370;SDS011;48550;40.588;49.684;2022-10-31T06:12:33;14.77;;;6.05;;
60370;SDS011;48550;40.588;49.684;2022-10-31T06:15:06;10.90;;;5.22;;
60370;SDS011;48550;40.588;49.684;2022-10-31T06:17:33;11.05;;;5.30;;
60370;SDS011;48550;40.588;49.684;2022-10-31T06:20:00;13.13;;;5.50;;
60370;SDS011;48550;40.588;49.684;2022-10-31T06:22:26;11.45;;;6.30;;
60370;SDS011;48550;40.588;49.684;2022-10-31T06:24:52;10.07;;;5.47;;
60370;SDS011;48550;40.588;49.684;2022-10-31T06:27:18;11.95;;;5.53;;
60370;SDS011;48550;40.588;49.684;2022-10-31T06:29:44;8.98;;;5.68;;
60370;SDS011;48550;40.588;49.684;2022-10-31T06:32:12;9.02;;;5.07;;
60370;SDS011;48550;40.588;49.684;2022-10-31T06:34:38;14.02;;;5.78;;
60370;SDS011;48550;40.588;49.684;2022-10-31T06:37:09;9.27;;;5.15;;
60370;SDS011;48550;40.588;49.684;2022-10-31T06:39:35;18.80;;;7.32;;
60370;SDS011;48550;40.588;49.684;2022-10-31T06:42:01;20.95;;;6.28;;
60370;SDS011;48550;40.588;49.684;2022-10-31T06:44:27;13.70;;;6.82;;
60370;SDS011;48550;40.588;49.684;2022-10-31T06:46:53;18.60;;;7.97;;
60370;SDS011;48550;40.588;49.684;2022-10-31T06:49:19;14.63;;;7.25;;
60370;SDS011;48550;40.588;49.684;2022-10-31T06:51:47;12.77;;;6.78;;
60370;SDS011;48550;40.588;49.684;2022-10-31T06:54:13;16.83;;;6.97;;
60370;SDS011;48550;40.588;49.684;2022-10-31T06:56:40;10.70;;;6.93;;
60370;SDS011;48550;40.588;49.684;2022-10-31T06:59:05;10.00;;;6.75;;
60370;SDS011;48550;40.588;49.684;2022-10-31T07:01:31;12.32;;;6.40;;
60370;SDS011;48550;40.588;49.684;2022-10-31T07:03:57;13.52;;;7.70;;
60370;SDS011;48550;40.588;49.684;2022-10-31T07:06:23;11.80;;;7.05;;
60370;SDS011;48550;40.588;49.684;2022-10-31T07:08:48;18.90;;;8.18;;
60370;SDS011;48550;40.588;49.684;2022-10-31T07:11:14;14.35;;;8.48;;
60370;SDS011;48550;40.588;49.684;2022-10-31T07:13:40;16.40;;;6.57;;
60370;SDS011;48550;40.588;49.684;2022-10-31T07:16:06;18.40;;;5.22;;
60370;SDS011;48550;40.588;49.684;2022-10-31T07:18:32;12.85;;;5.07;;
60370;SDS011;48550;40.588;49.684;2022-10-31T07:20:59;11.25;;;4.57;;
60370;SDS011;48550;40.588;49.684;2022-10-31T07:23:25;14.82;;;8.75;;
60370;SDS011;48550;40.588;49.684;2022-10-31T07:25:55;12.25;;;5.03;;
60370;SDS011;48550;40.588;49.684;2022-10-31T07:28:21;10.32;;;4.15;;
60370;SDS011;48550;40.588;49.684;2022-10-31T07:30:54;12.10;;;5.07;;
60370;SDS011;48550;40.588;49.684;2022-10-31T07:33:22;14.48;;;5.97;;
60370;SDS011;48550;40.588;49.684;2022-10-31T07:35:51;9.15;;;4.40;;
60370;SDS011;48550;40.588;49.684;2022-10-31T07:38:17;11.18;;;4.75;;
60370;SDS011;48550;40.588;49.684;2022-10-31T07:40:42;9.27;;;4.70;;
60370;SDS011;48550;40.588;49.684;2022-10-31T07:43:09;15.10;;;5.53;;
60370;SDS011;48550;40.588;49.684;2022-10-31T07:45:37;11.02;;;4.25;;
60370;SDS011;48550;40.588;49.684;2022-10-31T07:48:02;11.75;;;4.53;;
60370;SDS011;48550;40.588;49.684;2022-10-31T07:50:29;20.50;;;5.20;;
60370;SDS011;48550;40.588;49.684;2022-10-31T07:53:00;8.10;;;4.75;;
60370;SDS011;48550;40.588;49.684;2022-10-31T07:55:36;12.30;;;4.70;;
60370;SDS011;48550;40.588;49.684;2022-10-31T07:58:03;11.52;;;4.50;;
60370;SDS011;48550;40.588;49.684;2022-10-31T08:00:31;6.75;;;4.30;;
60370;SDS011;48550;40.588;49.684;2022-10-31T08:05:28;11.65;;;4.32;;
60370;SDS011;48550;40.588;49.684;2022-10-31T08:07:54;10.25;;;4.80;;
60370;SDS011;48550;40.588;49.684;2022-10-31T08:10:20;10.43;;;4.20;;
60370;SDS011;48550;40.588;49.684;2022-10-31T08:12:47;12.50;;;4.60;;
60370;SDS011;48550;40.588;49.684;2022-10-31T08:15:19;10.93;;;4.65;;
60370;SDS011;48550;40.588;49.684;2022-10-31T08:17:45;10.18;;;4.20;;
60370;SDS011;48550;40.588;49.684;2022-10-31T08:20:10;13.82;;;4.40;;
60370;SDS011;48550;40.588;49.684;2022-10-31T08:22:36;14.93;;;4.85;;
60370;SDS011;48550;40.588;49.684;2022-10-31T08:25:02;14.90;;;4.72;;
60370;SDS011;48550;40.588;49.684;2022-10-31T08:27:28;8.95;;;4.15;;
60370;SDS011;48550;40.588;49.684;2022-10-31T08:29:53;11.85;;;4.03;;
60370;SDS011;48550;40.588;49.684;2022-10-31T08:32:19;10.98;;;4.53;;
60370;SDS011;48550;40.588;49.684;2022-10-31T08:34:45;10.32;;;4.00;;
60370;SDS011;48550;40.588;49.684;2022-10-31T08:37:10;7.35;;;3.70;;
60370;SDS011;48550;40.588;49.684;2022-10-31T08:39:36;15.52;;;4.60;;
60370;SDS011;48550;40.588;49.684;2022-10-31T08:42:02;7.68;;;3.83;;
60370;SDS011;48550;40.588;49.684;2022-10-31T08:44:27;12.13;;;5.07;;
60370;SDS011;48550;40.588;49.684;2022-10-31T08:46:53;6.53;;;3.50;;
60370;SDS011;48550;40.588;49.684;2022-10-31T08:49:19;8.52;;;3.45;;
60370;SDS011;48550;40.588;49.684;2022-10-31T08:51:47;10.13;;;3.45;;
60370;SDS011;48550;40.588;49.684;2022-10-31T08:54:13;8.02;;;3.83;;
60370;SDS011;48550;40.588;49.684;2022-10-31T08:56:39;18.55;;;4.82;;
60370;SDS011;48550;40.588;49.684;2022-10-31T08:59:04;7.45;;;3.47;;
60370;SDS011;48550;40.588;49.684;2022-10-31T09:01:30;8.65;;;3.33;;
60370;SDS011;48550;40.588;49.684;2022-10-31T09:03:56;8.02;;;3.25;;
60370;SDS011;48550;40.588;49.684;2022-10-31T09:06:21;9.02;;;3.83;;
60370;SDS011;48550;40.588;49.684;2022-10-31T09:08:47;7.47;;;3.15;;
60370;SDS011;48550;40.588;49.684;2022-10-31T09:11:13;7.10;;;2.90;;
60370;SDS011;48550;40.588;49.684;2022-10-31T09:13:38;5.75;;;2.58;;
60370;SDS011;48550;40.588;49.684;2022-10-31T09:16:04;12.00;;;4.25;;
60370;SDS011;48550;40.588;49.684;2022-10-31T09:18:31;9.45;;;4.72;;
60370;SDS011;48550;40.588;49.684;2022-10-31T09:20:57;17.90;;;6.68;;
60370;SDS011;48550;40.588;49.684;2022-10-31T09:23:24;19.77;;;8.00;;
60370;SDS011;48550;40.588;49.684;2022-10-31T09:25:50;15.68;;;7.00;;
60370;SDS011;48550;40.588;49.684;2022-10-31T09:28:18;18.27;;;6.68;;
60370;SDS011;48550;40.588;49.684;2022-10-31T09:30:46;14.48;;;6.10;;
60370;SDS011;48550;40.588;49.684;2022-10-31T09:33:13;12.13;;;5.88;;
60370;SDS011;48550;40.588;49.684;2022-10-31T09:35:39;11.50;;;5.32;;
60370;SDS011;48550;40.588;49.684;2022-10-31T09:38:06;12.70;;;5.65;;
60370;SDS011;48550;40.588;49.684;2022-10-31T09:40:43;15.13;;;6.15;;
60370;SDS011;48550;40.588;49.684;2022-10-31T09:43:33;13.90;;;5.70;;
60370;SDS011;48550;40.588;49.684;2022-10-31T09:46:30;12.57;;;6.30;;
60370;SDS011;48550;40.588;49.684;2022-10-31T09:51:51;16.45;;;5.88;;
60370;SDS011;48550;40.588;49.684;2022-10-31T09:57:13;12.35;;;6.43;;
60370;SDS011;48550;40.588;49.684;2022-10-31T09:59:41;108.15;;;11.65;;
60370;SDS011;48550;40.588;49.684;2022-10-31T10:05:13;18.45;;;8.18;;
60370;SDS011;48550;40.588;49.684;2022-10-31T10:07:53;30.63;;;9.00;;
60370;SDS011;48550;40.588;49.684;2022-10-31T10:13:32;19.65;;;7.95;;
60370;SDS011;48550;40.588;49.684;2022-10-31T10:30:15;13.52;;;7.07;;
60370;SDS011;48550;40.588;49.684;2022-10-31T10:32:56;11.90;;;7.13;;
60370;SDS011;48550;40.588;49.684;2022-10-31T10:35:26;16.17;;;7.00;;
60370;SDS011;48550;40.588;49.684;2022-10-31T10:37:56;9.93;;;6.57;;
60370;SDS011;48550;40.588;49.684;2022-10-31T10:40:28;12.43;;;6.55;;
60370;SDS011;48550;40.588;49.684;2022-10-31T10:46:05;13.05;;;6.68;;
60370;SDS011;48550;40.588;49.684;2022-10-31T10:49:18;11.70;;;5.72;;
60370;SDS011;48550;40.588;49.684;2022-10-31T10:57:06;16.33;;;6.73;;
60370;SDS011;48550;40.588;49.684;2022-10-31T10:59:46;14.88;;;6.28;;
60370;SDS011;48550;40.588;49.684;2022-10-31T11:02:19;11.32;;;6.00;;
60370;SDS011;48550;40.588;49.684;2022-10-31T11:04:56;9.90;;;5.32;;
60370;SDS011;48550;40.588;49.684;2022-10-31T11:07:25;12.02;;;4.45;;
60370;SDS011;48550;40.588;49.684;2022-10-31T11:10:01;7.25;;;3.75;;
60370;SDS011;48550;40.588;49.684;2022-10-31T11:12:29;7.93;;;4.18;;
60370;SDS011;48550;40.588;49.684;2022-10-31T11:15:03;10.20;;;4.28;;
60370;SDS011;48550;40.588;49.684;2022-10-31T11:17:38;19.83;;;5.15;;
60370;SDS011;48550;40.588;49.684;2022-10-31T11:20:27;9.90;;;4.40;;
60370;SDS011;48550;40.588;49.684;2022-10-31T11:23:03;7.60;;;3.92;;
60370;SDS011;48550;40.588;49.684;2022-10-31T11:25:59;6.53;;;3.95;;
60370;SDS011;48550;40.588;49.684;2022-10-31T11:28:27;7.97;;;4.22;;
60370;SDS011;48550;40.588;49.684;2022-10-31T11:31:07;9.18;;;4.47;;
60370;SDS011;48550;40.588;49.684;2022-10-31T11:33:47;6.80;;;3.83;;
60370;SDS011;48550;40.588;49.684;2022-10-31T11:36:16;9.55;;;3.67;;
60370;SDS011;48550;40.588;49.684;2022-10-31T11:38:55;9.85;;;3.35;;
60370;SDS011;48550;40.588;49.684;2022-10-31T11:41:25;7.97;;;3.53;;
60370;SDS011;48550;40.588;49.684;2022-10-31T11:44:12;6.38;;;3.20;;
60370;SDS011;48550;40.588;49.684;2022-10-31T11:46:44;7.55;;;2.90;;
60370;SDS011;48550;40.588;49.684;2022-10-31T11:49:19;7.95;;;3.17;;
60370;SDS011;48550;40.588;49.684;2022-10-31T11:51:54;6.55;;;3.42;;
60370;SDS011;48550;40.588;49.684;2022-10-31T11:54:32;7.85;;;2.80;;
60370;SDS011;48550;40.588;49.684;2022-10-31T11:57:22;5.72;;;3.25;;
60370;SDS011;48550;40.588;49.684;2022-10-31T11:59:53;8.02;;;3.38;;
60370;SDS011;48550;40.588;49.684;2022-10-31T12:02:21;5.43;;;3.22;;
60370;SDS011;48550;40.588;49.684;2022-10-31T12:05:10;5.53;;;3.65;;
60370;SDS011;48550;40.588;49.684;2022-10-31T12:07:36;9.10;;;3.45;;
60370;SDS011;48550;40.588;49.684;2022-10-31T12:10:05;5.50;;;3.40;;
60370;SDS011;48550;40.588;49.684;2022-10-31T12:12:52;6.75;;;3.47;;
60370;SDS011;48550;40.588;49.684;2022-10-31T12:15:32;8.95;;;3.22;;
60370;SDS011;48550;40.588;49.684;2022-10-31T12:32:03;4.28;;;2.72;;
60370;SDS011;48550;40.588;49.684;2022-10-31T12:35:38;5.45;;;3.03;;
60370;SDS011;48550;40.588;49.684;2022-10-31T12:43:12;4.90;;;2.83;;
60370;SDS011;48550;40.588;49.684;2022-10-31T12:45:57;8.27;;;2.95;;
60370;SDS011;48550;40.588;49.684;2022-10-31T13:01:50;5.15;;;3.03;;
60370;SDS011;48550;40.588;49.684;2022-10-31T13:06:52;8.57;;;3.47;;
60370;SDS011;48550;40.588;49.684;2022-10-31T13:09:25;5.50;;;3.28;;
60370;SDS011;48550;40.588;49.684;2022-10-31T13:12:00;7.20;;;4.05;;
60370;SDS011;48550;40.588;49.684;2022-10-31T13:14:32;5.68;;;3.30;;
60370;SDS011;48550;40.588;49.684;2022-10-31T13:17:03;10.05;;;4.20;;
60370;SDS011;48550;40.588;49.684;2022-10-31T13:19:37;5.95;;;3.47;;
60370;SDS011;48550;40.588;49.684;2022-10-31T13:22:24;6.28;;;3.88;;
60370;SDS011;48550;40.588;49.684;2022-10-31T13:24:57;6.88;;;3.67;;
60370;SDS011;48550;40.588;49.684;2022-10-31T13:27:42;7.72;;;3.50;;
60370;SDS011;48550;40.588;49.684;2022-10-31T13:30:21;7.28;;;4.15;;
60370;SDS011;48550;40.588;49.684;2022-10-31T13:38:08;8.57;;;3.50;;
60370;SDS011;48550;40.588;49.684;2022-10-31T13:40:38;9.50;;;3.40;;
60370;SDS011;48550;40.588;49.684;2022-10-31T13:43:44;5.75;;;3.75;;
60370;SDS011;48550;40.588;49.684;2022-10-31T13:46:20;7.32;;;3.92;;
60370;SDS011;48550;40.588;49.684;2022-10-31T13:48:48;5.05;;;3.40;;
60370;SDS011;48550;40.588;49.684;2022-10-31T13:51:13;9.68;;;3.90;;
60370;SDS011;48550;40.588;49.684;2022-10-31T13:56:17;4.60;;;3.38;;
60370;SDS011;48550;40.588;49.684;2022-10-31T13:59:15;8.30;;;3.80;;
60370;SDS011;48550;40.588;49.684;2022-10-31T14:01:58;7.03;;;4.38;;
60370;SDS011;48550;40.588;49.684;2022-10-31T14:07:05;41.70;;;24.60;;
60370;SDS011;48550;40.588;49.684;2022-10-31T14:09:59;9.32;;;5.10;;
60370;SDS011;48550;40.588;49.684;2022-10-31T14:12:36;15.90;;;9.95;;
60370;SDS011;48550;40.588;49.684;2022-10-31T14:15:05;44.03;;;30.08;;
60370;SDS011;48550;40.588;49.684;2022-10-31T14:17:44;16.90;;;9.48;;
60370;SDS011;48550;40.588;49.684;2022-10-31T14:22:39;7.68;;;5.25;;
60370;SDS011;48550;40.588;49.684;2022-10-31T14:27:58;14.02;;;5.50;;
60370;SDS011;48550;40.588;49.684;2022-10-31T14:30:26;12.23;;;5.80;;
60370;SDS011;48550;40.588;49.684;2022-10-31T14:32:55;13.25;;;5.00;;
60370;SDS011;48550;40.588;49.684;2022-10-31T14:36:21;7.72;;;4.57;;
60370;SDS011;48550;40.588;49.684;2022-10-31T14:52:26;8.80;;;4.80;;
60370;SDS011;48550;40.588;49.684;2022-10-31T14:54:53;12.27;;;5.68;;
60370;SDS011;48550;40.588;49.684;2022-10-31T14:57:28;14.13;;;5.82;;
60370;SDS011;48550;40.588;49.684;2022-10-31T14:59:58;11.43;;;5.75;;
60370;SDS011;48550;40.588;49.684;2022-10-31T15:02:38;10.27;;;4.88;;
60370;SDS011;48550;40.588;49.684;2022-10-31T15:05:09;12.75;;;4.90;;
60370;SDS011;48550;40.588;49.684;2022-10-31T15:07:36;9.55;;;5.03;;
60370;SDS011;48550;40.588;49.684;2022-10-31T15:10:06;8.57;;;4.60;;
60370;SDS011;48550;40.588;49.684;2022-10-31T15:12:44;8.13;;;4.63;;
60370;SDS011;48550;40.588;49.684;2022-10-31T15:15:11;10.02;;;4.90;;
60370;SDS011;48550;40.588;49.684;2022-10-31T15:17:41;8.45;;;5.03;;
60370;SDS011;48550;40.588;49.684;2022-10-31T15:20:11;9.27;;;4.93;;
60370;SDS011;48550;40.588;49.684;2022-10-31T15:22:43;10.23;;;4.90;;
60370;SDS011;48550;40.588;49.684;2022-10-31T15:25:12;7.45;;;5.00;;
60370;SDS011;48550;40.588;49.684;2022-10-31T15:27:47;8.40;;;5.40;;
60370;SDS011;48550;40.588;49.684;2022-10-31T15:30:17;8.05;;;4.40;;
60370;SDS011;48550;40.588;49.684;2022-10-31T15:32:52;8.60;;;5.15;;
60370;SDS011;48550;40.588;49.684;2022-10-31T15:35:23;9.68;;;6.07;;
60370;SDS011;48550;40.588;49.684;2022-10-31T15:37:53;14.45;;;5.40;;
60370;SDS011;48550;40.588;49.684;2022-10-31T15:40:22;10.98;;;5.20;;
60370;SDS011;48550;40.588;49.684;2022-10-31T15:42:51;9.80;;;5.55;;
60370;SDS011;48550;40.588;49.684;2022-10-31T15:45:23;9.45;;;5.10;;
60370;SDS011;48550;40.588;49.684;2022-10-31T15:53:02;14.23;;;5.70;;
60370;SDS011;48550;40.588;49.684;2022-10-31T15:55:32;16.33;;;6.22;;
60370;SDS011;48550;40.588;49.684;2022-10-31T15:58:10;12.90;;;6.60;;
60370;SDS011;48550;40.588;49.684;2022-10-31T16:00:38;14.70;;;7.18;;
60370;SDS011;48550;40.588;49.684;2022-10-31T16:03:20;12.65;;;7.80;;
60370;SDS011;48550;40.588;49.684;2022-10-31T16:05:53;15.15;;;7.75;;
60370;SDS011;48550;40.588;49.684;2022-10-31T16:08:44;17.20;;;8.63;;
60370;SDS011;48550;40.588;49.684;2022-10-31T16:13:56;16.52;;;7.63;;
60370;SDS011;48550;40.588;49.684;2022-10-31T16:16:42;15.55;;;8.90;;
60370;SDS011;48550;40.588;49.684;2022-10-31T16:19:19;18.73;;;9.20;;
60370;SDS011;48550;40.588;49.684;2022-10-31T16:21:46;16.33;;;8.48;;
60370;SDS011;48550;40.588;49.684;2022-10-31T16:24:19;20.00;;;9.13;;
60370;SDS011;48550;40.588;49.684;2022-10-31T16:27:00;24.50;;;10.63;;
60370;SDS011;48550;40.588;49.684;2022-10-31T16:29:37;35.20;;;13.98;;
60370;SDS011;48550;40.588;49.684;2022-10-31T16:32:27;28.88;;;13.25;;
60370;SDS011;48550;40.588;49.684;2022-10-31T16:34:59;35.53;;;13.93;;
60370;SDS011;48550;40.588;49.684;2022-10-31T16:37:46;39.85;;;17.58;;
60370;SDS011;48550;40.588;49.684;2022-10-31T16:40:12;47.85;;;20.33;;
60370;SDS011;48550;40.588;49.684;2022-10-31T16:42:39;52.30;;;21.38;;
60370;SDS011;48550;40.588;49.684;2022-10-31T16:45:13;46.53;;;21.38;;
60370;SDS011;48550;40.588;49.684;2022-10-31T16:47:50;48.60;;;20.17;;
60370;SDS011;48550;40.588;49.684;2022-10-31T16:50:21;39.65;;;18.25;;
60370;SDS011;48550;40.588;49.684;2022-10-31T16:52:51;49.05;;;20.27;;
60370;SDS011;48550;40.588;49.684;2022-10-31T16:55:17;46.00;;;19.50;;
60370;SDS011;48550;40.588;49.684;2022-10-31T16:57:46;44.40;;;20.77;;